Time;durP1;ratioP1;P1;durP2;ratioP2;P2;SDS_P1;SDS_P2;PMS_P1;PMS_P2;Temp;Humidity;BMP_temperature;BMP_pressure;BME280_temperature;BME280_humidity;BME280_pressure;Samples;Min_cycle;Max_cycle;Signal;HPM_P1;HPM_P2
2022/09/27 00:02:37;;;;;;;238.25;66.40;;;;;;;;;;6163261;28;20061;-59
2022/09/27 00:05:38;;;;;;;234.13;63.88;;;;;;;;;;6163913;28;20068;-59
2022/09/27 00:08:38;;;;;;;186.97;61.97;;;;;;;;;;6165093;28;20488;-57
2022/09/27 00:11:41;;;;;;;243.52;64.93;;;;;;;;;;6162889;28;20043;-58
2022/09/27 00:14:42;;;;;;;215.90;65.07;;;;;;;;;;6161944;28;20549;-55
2022/09/27 00:17:42;;;;;;;227.40;65.07;;;;;;;;;;6164569;28;20093;-60
2022/09/27 00:20:43;;;;;;;198.93;56.47;;;;;;;;;;6163788;28;20043;-58
2022/09/27 00:23:44;;;;;;;174.15;59.03;;;;;;;;;;6161954;28;20069;-61
2022/09/27 00:26:45;;;;;;;230.70;68.50;;;;;;;;;;6165014;28;20417;-55
2022/09/27 00:29:46;;;;;;;212.23;65.03;;;;;;;;;;6164630;28;20043;-58
2022/09/27 00:32:47;;;;;;;270.80;69.88;;;;;;;;;;6162597;28;20041;-58
2022/09/27 00:35:48;;;;;;;187.57;63.70;;;;;;;;;;6164422;28;20186;-61
2022/09/27 00:38:49;;;;;;;243.20;63.38;;;;;;;;;;6163868;28;20074;-58
2022/09/27 00:41:50;;;;;;;264.02;67.70;;;;;;;;;;6164369;28;20049;-58
2022/09/27 00:44:59;;;;;;;302.53;64.30;;;;;;;;;;6170021;28;20138;-61
2022/09/27 00:48:03;;;;;;;345.63;64.68;;;;;;;;;;6169331;28;20047;-59
2022/09/27 00:51:08;;;;;;;243.18;58.28;;;;;;;;;;6170506;28;20058;-58
2022/09/27 00:54:12;;;;;;;286.75;59.58;;;;;;;;;;6165637;28;20046;-58
2022/09/27 00:57:12;;;;;;;306.27;59.22;;;;;;;;;;6163536;28;20429;-61
2022/09/27 01:00:14;;;;;;;289.67;56.33;;;;;;;;;;6162298;28;20089;-59
2022/09/27 01:03:25;;;;;;;220.68;54.95;;;;;;;;;;6163165;28;20550;-58
2022/09/27 01:06:25;;;;;;;221.63;56.63;;;;;;;;;;6164469;28;20039;-60
2022/09/27 01:09:27;;;;;;;215.38;54.20;;;;;;;;;;6164195;28;20141;-58
2022/09/27 01:12:46;;;;;;;244.90;55.75;;;;;;;;;;6161477;28;20054;-58
2022/09/27 01:16:03;;;;;;;288.23;54.17;;;;;;;;;;6161378;28;20150;-59
2022/09/27 01:19:24;;;;;;;239.82;57.28;;;;;;;;;;6163226;28;20070;-58
2022/09/27 01:22:55;;;;;;;245.43;54.25;;;;;;;;;;6159768;28;20046;-60
2022/09/27 01:26:08;;;;;;;262.65;55.25;;;;;;;;;;6164838;28;20134;-58
2022/09/27 01:29:47;;;;;;;190.73;53.97;;;;;;;;;;6162004;28;20141;-58
2022/09/27 01:32:51;;;;;;;188.02;51.80;;;;;;;;;;6159887;28;20141;-57
2022/09/27 01:36:48;;;;;;;208.95;51.38;;;;;;;;;;6159823;28;20058;-60
2022/09/27 01:40:15;;;;;;;164.75;49.83;;;;;;;;;;6129327;29;20617;-59
2022/09/27 01:43:22;;;;;;;148.00;49.63;;;;;;;;;;6161263;28;20173;-58
2022/09/27 01:46:28;;;;;;;143.70;48.72;;;;;;;;;;6159866;28;20055;-57
2022/09/27 01:49:36;;;;;;;149.98;47.17;;;;;;;;;;6168993;28;20437;-59
2022/09/27 01:52:42;;;;;;;178.25;49.60;;;;;;;;;;6165179;28;20058;-58
2022/09/27 01:55:47;;;;;;;152.50;48.30;;;;;;;;;;6167701;28;20161;-59
2022/09/27 01:58:51;;;;;;;171.05;48.97;;;;;;;;;;6161418;28;20082;-58
2022/09/27 02:01:53;;;;;;;158.93;48.08;;;;;;;;;;6162120;28;20093;-57
2022/09/27 02:04:57;;;;;;;164.48;46.60;;;;;;;;;;6162526;28;20039;-58
2022/09/27 02:08:04;;;;;;;156.38;46.10;;;;;;;;;;6164721;28;20561;-59
2022/09/27 02:11:10;;;;;;;139.60;45.97;;;;;;;;;;6163576;28;20050;-58
2022/09/27 02:14:18;;;;;;;127.88;45.38;;;;;;;;;;6161769;28;20149;-57
2022/09/27 02:17:26;;;;;;;152.13;46.38;;;;;;;;;;6159588;28;20045;-58
2022/09/27 02:20:36;;;;;;;166.57;47.58;;;;;;;;;;6160490;28;20383;-58
2022/09/27 02:24:09;;;;;;;180.13;44.47;;;;;;;;;;6160797;28;20446;-57
2022/09/27 02:27:26;;;;;;;134.73;43.05;;;;;;;;;;6149060;28;20105;-58
2022/09/27 02:30:26;;;;;;;137.45;43.28;;;;;;;;;;6160711;28;20050;-59
2022/09/27 02:33:33;;;;;;;174.73;43.15;;;;;;;;;;6159303;28;20128;-55
2022/09/27 02:36:35;;;;;;;161.48;44.53;;;;;;;;;;6160137;28;20158;-58
2022/09/27 02:39:35;;;;;;;174.32;44.17;;;;;;;;;;6161790;28;20128;-58
2022/09/27 02:42:36;;;;;;;139.20;43.92;;;;;;;;;;6160891;28;20050;-57
2022/09/27 02:45:52;;;;;;;123.53;42.58;;;;;;;;;;6164091;28;20077;-57
2022/09/27 02:49:03;;;;;;;147.95;42.67;;;;;;;;;;6161803;28;20047;-56
2022/09/27 02:52:25;;;;;;;107.68;40.03;;;;;;;;;;6164685;28;20575;-59
2022/09/27 02:55:55;;;;;;;111.30;42.93;;;;;;;;;;6158993;28;20058;-59
2022/09/27 02:59:17;;;;;;;146.35;41.83;;;;;;;;;;6161651;28;20162;-61
2022/09/27 03:02:39;;;;;;;107.67;43.00;;;;;;;;;;6160141;28;20489;-59
2022/09/27 03:05:49;;;;;;;118.47;43.88;;;;;;;;;;6163191;28;20138;-58
2022/09/27 03:08:50;;;;;;;119.85;42.55;;;;;;;;;;6160460;28;20039;-59
2022/09/27 03:11:52;;;;;;;156.27;41.05;;;;;;;;;;6165119;28;20047;-60
2022/09/27 03:14:57;;;;;;;151.80;42.83;;;;;;;;;;6166075;28;20517;-57
2022/09/27 03:17:59;;;;;;;166.43;43.60;;;;;;;;;;6164401;28;21138;-61
2022/09/27 03:20:59;;;;;;;158.88;40.05;;;;;;;;;;6167415;28;20525;-59
2022/09/27 03:24:01;;;;;;;195.73;43.53;;;;;;;;;;6167514;28;20134;-59
2022/09/27 03:27:02;;;;;;;128.70;40.70;;;;;;;;;;6165928;28;20050;-59
2022/09/27 03:30:05;;;;;;;173.23;41.60;;;;;;;;;;6164388;28;20047;-57
2022/09/27 03:33:05;;;;;;;210.77;41.17;;;;;;;;;;6167770;28;20142;-59
2022/09/27 03:36:06;;;;;;;192.02;40.25;;;;;;;;;;6168188;28;20093;-58
2022/09/27 03:39:07;;;;;;;183.20;37.90;;;;;;;;;;6164737;28;20512;-59
2022/09/27 03:42:07;;;;;;;103.68;34.15;;;;;;;;;;6165768;28;20050;-59
2022/09/27 03:45:08;;;;;;;114.32;36.17;;;;;;;;;;6164816;28;20472;-59
2022/09/27 03:48:09;;;;;;;132.55;39.65;;;;;;;;;;6166412;28;20083;-59
2022/09/27 03:51:11;;;;;;;141.10;38.30;;;;;;;;;;6163717;28;20089;-59
2022/09/27 03:54:12;;;;;;;;;;;;;;;;;;6164082;28;20047;-58
2022/09/27 03:57:13;;;;;;;99.20;36.55;;;;;;;;;;6165110;28;19930;-59
2022/09/27 04:00:13;;;;;;;88.00;34.72;;;;;;;;;;6163807;28;20137;-58
2022/09/27 04:03:14;;;;;;;132.35;33.45;;;;;;;;;;6163178;28;20038;-59
2022/09/27 04:06:15;;;;;;;108.88;31.95;;;;;;;;;;6165897;28;20043;-57
2022/09/27 04:09:15;;;;;;;86.75;33.13;;;;;;;;;;6162984;28;20042;-59
2022/09/27 04:12:16;;;;;;;98.43;34.20;;;;;;;;;;6163753;28;20043;-59
2022/09/27 04:15:16;;;;;;;95.00;33.17;;;;;;;;;;6165384;28;20145;-56
2022/09/27 04:18:17;;;;;;;86.32;31.48;;;;;;;;;;6163278;28;20137;-61
2022/09/27 04:21:19;;;;;;;89.88;31.90;;;;;;;;;;6163447;28;21343;-59
2022/09/27 04:24:20;;;;;;;91.93;32.33;;;;;;;;;;6164810;28;20045;-58
2022/09/27 04:27:21;;;;;;;93.47;32.78;;;;;;;;;;6164385;28;20779;-58
2022/09/27 04:30:22;;;;;;;94.43;32.35;;;;;;;;;;6161773;28;20149;-58
2022/09/27 04:33:22;;;;;;;97.25;35.92;;;;;;;;;;6165732;28;20051;-58
2022/09/27 04:36:28;;;;;;;128.98;36.55;;;;;;;;;;6164524;28;20058;-59
2022/09/27 04:39:28;;;;;;;127.35;32.03;;;;;;;;;;6161857;28;20506;-59
2022/09/27 04:42:29;;;;;;;119.80;32.40;;;;;;;;;;6166226;28;20053;-59
2022/09/27 04:45:30;;;;;;;93.70;31.20;;;;;;;;;;6164747;28;20054;-58
2022/09/27 04:48:31;;;;;;;77.80;29.80;;;;;;;;;;6166906;28;20129;-59
2022/09/27 04:51:31;;;;;;;81.55;30.52;;;;;;;;;;6170304;28;20114;-59
2022/09/27 04:54:32;;;;;;;83.72;29.95;;;;;;;;;;6170810;28;20051;-59
2022/09/27 04:57:33;;;;;;;102.82;32.33;;;;;;;;;;6169648;28;20054;-59
2022/09/27 05:00:33;;;;;;;109.28;32.15;;;;;;;;;;6162988;28;20081;-58
2022/09/27 05:03:34;;;;;;;118.55;32.88;;;;;;;;;;6166329;28;20047;-59
2022/09/27 05:06:35;;;;;;;92.57;32.85;;;;;;;;;;6168909;28;20073;-60
2022/09/27 05:09:35;;;;;;;91.90;34.03;;;;;;;;;;6165092;28;20050;-58
2022/09/27 05:12:36;;;;;;;79.45;30.70;;;;;;;;;;6165552;28;20863;-57
2022/09/27 05:15:37;;;;;;;78.43;30.80;;;;;;;;;;6161570;28;20051;-59
2022/09/27 05:18:38;;;;;;;79.22;31.88;;;;;;;;;;6165082;28;20062;-58
2022/09/27 05:21:39;;;;;;;72.53;31.38;;;;;;;;;;6166751;28;20483;-58
2022/09/27 05:24:41;;;;;;;72.97;28.73;;;;;;;;;;6173044;28;20487;-58
2022/09/27 05:27:41;;;;;;;71.83;28.87;;;;;;;;;;6164465;28;20490;-59
2022/09/27 05:30:42;;;;;;;68.43;29.38;;;;;;;;;;6168301;28;20288;-61
2022/09/27 05:33:43;;;;;;;64.55;30.63;;;;;;;;;;6157182;28;20049;-59
2022/09/27 05:36:46;;;;;;;85.25;36.20;;;;;;;;;;6163895;28;20070;-58
2022/09/27 05:39:47;;;;;;;83.35;37.10;;;;;;;;;;6161981;28;20529;-58
2022/09/27 05:42:49;;;;;;;67.82;31.63;;;;;;;;;;6162488;28;20047;-58
2022/09/27 05:45:51;;;;;;;62.00;28.02;;;;;;;;;;6167608;28;20042;-58
2022/09/27 05:48:52;;;;;;;70.90;30.92;;;;;;;;;;6173492;28;20082;-59
2022/09/27 05:51:52;;;;;;;66.88;30.13;;;;;;;;;;6165195;28;20053;-58
2022/09/27 05:54:53;;;;;;;63.63;28.17;;;;;;;;;;6167351;28;20145;-56
2022/09/27 05:57:55;;;;;;;60.78;27.98;;;;;;;;;;6167189;28;20053;-58
2022/09/27 06:00:56;;;;;;;62.35;28.63;;;;;;;;;;6167680;28;20566;-57
2022/09/27 06:03:57;;;;;;;68.90;30.52;;;;;;;;;;6162124;28;20054;-59
2022/09/27 06:06:58;;;;;;;70.57;30.58;;;;;;;;;;6160706;28;20055;-59
2022/09/27 06:09:58;;;;;;;74.28;33.72;;;;;;;;;;6165338;28;20046;-61
2022/09/27 06:13:04;;;;;;;77.93;32.28;;;;;;;;;;6163317;28;20510;-60
2022/09/27 06:16:06;;;;;;;85.07;34.25;;;;;;;;;;6164566;28;20054;-59
2022/09/27 06:19:07;;;;;;;;;;;;;;;;;;6148997;28;20049;-58
2022/09/27 06:22:07;;;;;;;65.55;27.08;;;;;;;;;;6166517;28;19922;-57
2022/09/27 06:25:09;;;;;;;68.07;31.73;;;;;;;;;;6169301;28;20046;-57
2022/09/27 06:28:13;;;;;;;73.75;34.42;;;;;;;;;;6164885;28;20070;-57
2022/09/27 06:31:14;;;;;;;74.32;32.67;;;;;;;;;;6160323;28;20084;-60
2022/09/27 06:34:15;;;;;;;73.13;30.95;;;;;;;;;;6164125;28;20406;-59
2022/09/27 06:37:16;;;;;;;70.23;30.90;;;;;;;;;;6157608;28;20042;-58
2022/09/27 06:40:17;;;;;;;82.25;32.65;;;;;;;;;;6163996;28;20788;-59
2022/09/27 06:43:19;;;;;;;67.53;30.25;;;;;;;;;;6159798;28;20065;-58
2022/09/27 06:46:19;;;;;;;;;;;;;;;;;;6159405;28;20051;-57
2022/09/27 06:49:24;;;;;;;62.17;26.85;;;;;;;;;;6156575;28;19926;-57
2022/09/27 06:52:25;;;;;;;58.45;27.13;;;;;;;;;;6159362;28;20619;-60
2022/09/27 06:55:26;;;;;;;69.95;31.83;;;;;;;;;;6159060;28;20107;-61
2022/09/27 07:01:48;;;;;;;59.17;25.13;;;;;;;;;;6156480;28;20097;-60
2022/09/27 07:04:49;;;;;;;65.50;28.80;;;;;;;;;;6163242;28;20054;-59
2022/09/27 07:07:55;;;;;;;54.17;25.33;;;;;;;;;;6164463;28;20137;-61
2022/09/27 07:11:01;;;;;;;58.50;25.40;;;;;;;;;;6166598;28;20035;-60
2022/09/27 07:14:03;;;;;;;68.38;32.25;;;;;;;;;;6164671;28;20142;-59
2022/09/27 07:17:03;;;;;;;58.28;26.27;;;;;;;;;;6161617;28;20137;-60
2022/09/27 07:20:04;;;;;;;61.92;26.83;;;;;;;;;;6162247;28;20641;-60
2022/09/27 07:23:06;;;;;;;58.60;25.85;;;;;;;;;;6165234;28;20399;-60
2022/09/27 07:26:09;;;;;;;;;;;;;;;;;;6166232;28;20530;-59
2022/09/27 07:29:09;;;;;;;58.55;26.80;;;;;;;;;;6165934;28;20305;-60
2022/09/27 07:32:10;;;;;;;56.47;25.33;;;;;;;;;;6163539;28;20133;-60
2022/09/27 07:35:13;;;;;;;52.85;24.15;;;;;;;;;;6157575;28;20492;-60
2022/09/27 07:38:15;;;;;;;52.33;25.20;;;;;;;;;;6157370;28;20109;-60
2022/09/27 07:41:15;;;;;;;45.33;22.20;;;;;;;;;;6156277;28;20173;-60
2022/09/27 07:44:16;;;;;;;62.20;28.10;;;;;;;;;;6157182;28;20149;-59
2022/09/27 07:47:18;;;;;;;51.47;24.33;;;;;;;;;;6158329;28;20035;-60
2022/09/27 07:50:19;;;;;;;44.03;22.55;;;;;;;;;;6155756;28;20668;-61
2022/09/27 07:53:20;;;;;;;40.85;20.02;;;;;;;;;;6160316;28;20138;-60
2022/09/27 07:56:20;;;;;;;37.83;19.33;;;;;;;;;;6162695;28;20047;-60
2022/09/27 07:59:21;;;;;;;36.03;18.50;;;;;;;;;;6162228;28;20046;-59
2022/09/27 08:02:22;;;;;;;49.20;20.15;;;;;;;;;;6158215;28;20047;-60
2022/09/27 08:05:23;;;;;;;42.70;17.77;;;;;;;;;;6162622;28;20149;-58
2022/09/27 08:08:24;;;;;;;43.85;20.90;;;;;;;;;;6164470;28;20113;-60
2022/09/27 08:11:24;;;;;;;42.42;19.38;;;;;;;;;;6160044;28;20049;-59
2022/09/27 08:14:25;;;;;;;44.08;19.30;;;;;;;;;;6162424;28;20055;-58
2022/09/27 08:17:27;;;;;;;43.10;20.80;;;;;;;;;;6162966;28;20054;-59
2022/09/27 08:20:27;;;;;;;41.17;18.60;;;;;;;;;;6159597;28;20417;-60
2022/09/27 08:23:29;;;;;;;43.30;19.60;;;;;;;;;;6159604;28;20053;-59
2022/09/27 08:26:30;;;;;;;50.17;21.98;;;;;;;;;;6164934;28;20082;-59
2022/09/27 08:29:30;;;;;;;59.15;23.05;;;;;;;;;;6159516;28;20065;-60
2022/09/27 08:32:31;;;;;;;58.55;22.48;;;;;;;;;;6160207;28;20486;-60
2022/09/27 08:35:32;;;;;;;50.50;20.80;;;;;;;;;;6163552;28;20556;-60
2022/09/27 08:38:33;;;;;;;35.90;15.57;;;;;;;;;;6162114;28;20125;-60
2022/09/27 08:41:37;;;;;;;36.60;17.30;;;;;;;;;;6165185;28;20498;-60
2022/09/27 08:45:00;;;;;;;36.30;17.05;;;;;;;;;;6145111;28;20134;-60
2022/09/27 08:48:03;;;;;;;37.65;16.35;;;;;;;;;;6144035;29;20047;-60
2022/09/27 08:51:09;;;;;;;30.55;14.93;;;;;;;;;;6142522;29;20152;-60
2022/09/27 08:54:18;;;;;;;26.20;14.00;;;;;;;;;;6143815;29;20498;-58
2022/09/27 08:57:21;;;;;;;28.65;14.07;;;;;;;;;;6143567;29;20082;-60
2022/09/27 09:00:22;;;;;;;22.48;11.52;;;;;;;;;;6136581;29;20415;-58
2022/09/27 09:03:26;;;;;;;25.90;12.00;;;;;;;;;;6135484;29;20078;-58
2022/09/27 09:06:58;;;;;;;25.65;12.93;;;;;;;;;;6134842;28;20032;-62
2022/09/27 09:12:45;;;;;;;24.20;12.57;;;;;;;;;;6135437;29;20047;-59
2022/09/27 09:13:54;;;;;;;24.98;13.38;;;;;;;;;;6137799;29;20825;-59
2022/09/27 09:17:25;;;;;;;24.88;12.65;;;;;;;;;;6134623;29;20051;-60
2022/09/27 09:20:57;;;;;;;31.17;14.03;;;;;;;;;;6133553;29;20043;-59
2022/09/27 09:24:28;;;;;;;34.27;13.63;;;;;;;;;;6138404;29;20039;-59
2022/09/27 09:28:02;;;;;;;31.25;13.27;;;;;;;;;;6135207;29;20047;-57
2022/09/27 09:31:07;;;;;;;27.40;13.00;;;;;;;;;;6133177;29;20162;-57
2022/09/27 09:34:17;;;;;;;32.25;13.15;;;;;;;;;;6115932;29;20044;-58
2022/09/27 09:37:37;;;;;;;32.03;14.40;;;;;;;;;;6135265;29;20585;-57
2022/09/27 09:40:55;;;;;;;28.40;12.35;;;;;;;;;;6135765;29;20053;-57
2022/09/27 09:44:28;;;;;;;19.60;10.82;;;;;;;;;;6148328;28;20134;-60
2022/09/27 09:47:38;;;;;;;24.75;11.23;;;;;;;;;;6146679;28;20414;-60
2022/09/27 09:50:42;;;;;;;27.83;11.52;;;;;;;;;;6165846;28;20493;-59
2022/09/27 09:53:55;;;;;;;24.33;11.85;;;;;;;;;;6166821;28;20502;-58
2022/09/27 09:57:19;;;;;;;30.48;15.57;;;;;;;;;;6166431;28;20511;-58
2022/09/27 10:00:20;;;;;;;27.58;15.38;;;;;;;;;;6166412;28;20113;-58
2022/09/27 10:03:21;;;;;;;26.88;14.15;;;;;;;;;;6166407;28;20046;-59
2022/09/27 10:06:24;;;;;;;26.63;12.38;;;;;;;;;;6167193;28;20075;-59
2022/09/27 10:09:27;;;;;;;27.65;12.55;;;;;;;;;;6168053;28;20166;-58
2022/09/27 10:12:28;;;;;;;25.55;11.43;;;;;;;;;;6166709;28;20047;-59
2022/09/27 10:15:30;;;;;;;21.55;10.55;;;;;;;;;;6168003;28;20063;-59
2022/09/27 10:18:31;;;;;;;17.42;10.32;;;;;;;;;;6165688;28;20450;-59
2022/09/27 10:21:32;;;;;;;21.08;9.98;;;;;;;;;;6160229;28;20082;-59
2022/09/27 10:24:53;;;;;;;20.42;10.80;;;;;;;;;;6161294;28;20108;-60
2022/09/27 10:27:54;;;;;;;20.98;10.27;;;;;;;;;;6150280;28;20487;-61
2022/09/27 10:30:57;;;;;;;17.75;9.40;;;;;;;;;;6157328;28;20047;-60
2022/09/27 10:34:04;;;;;;;19.25;9.70;;;;;;;;;;6163451;28;20138;-59
2022/09/27 10:37:11;;;;;;;20.60;9.27;;;;;;;;;;6155946;28;20114;-58
2022/09/27 10:40:32;;;;;;;17.83;7.80;;;;;;;;;;6162072;28;20402;-60
2022/09/27 10:43:35;;;;;;;14.90;8.40;;;;;;;;;;6165024;28;20134;-60
2022/09/27 10:46:36;;;;;;;19.95;9.50;;;;;;;;;;6162111;28;20105;-60
2022/09/27 10:49:40;;;;;;;19.83;8.63;;;;;;;;;;6158461;28;20054;-59
2022/09/27 10:52:41;;;;;;;16.73;8.82;;;;;;;;;;6155260;28;20130;-57
2022/09/27 10:55:46;;;;;;;15.63;8.90;;;;;;;;;;6155256;28;20047;-60
2022/09/27 10:58:47;;;;;;;15.77;9.30;;;;;;;;;;6154320;28;20186;-59
2022/09/27 11:01:49;;;;;;;22.27;8.88;;;;;;;;;;6155851;28;20062;-59
2022/09/27 11:05:07;;;;;;;21.20;10.32;;;;;;;;;;6159728;28;20427;-59
2022/09/27 11:08:17;;;;;;;18.80;8.70;;;;;;;;;;6162000;28;20050;-59
2022/09/27 11:11:25;;;;;;;21.67;9.13;;;;;;;;;;6164495;28;20042;-60
2022/09/27 11:14:30;;;;;;;20.52;9.18;;;;;;;;;;6155433;28;20121;-60
2022/09/27 11:17:51;;;;;;;20.25;11.13;;;;;;;;;;6155311;28;20122;-59
2022/09/27 11:20:59;;;;;;;21.40;11.95;;;;;;;;;;6158578;28;20046;-60
2022/09/27 11:24:09;;;;;;;17.42;9.15;;;;;;;;;;6162664;28;20146;-59
2022/09/27 11:27:44;;;;;;;17.45;9.18;;;;;;;;;;6165611;28;20414;-59
2022/09/27 11:31:11;;;;;;;16.92;9.20;;;;;;;;;;6164953;28;20136;-60
2022/09/27 11:34:27;;;;;;;21.02;8.82;;;;;;;;;;6166855;28;20034;-59
2022/09/27 11:37:57;;;;;;;15.45;8.10;;;;;;;;;;6170694;28;20178;-60
2022/09/27 11:41:17;;;;;;;20.63;8.57;;;;;;;;;;6170640;28;20066;-60
2022/09/27 11:44:33;;;;;;;20.30;9.93;;;;;;;;;;6158827;28;20118;-60
2022/09/27 11:47:52;;;;;;;19.60;9.82;;;;;;;;;;6147401;28;20047;-59
2022/09/27 11:51:25;;;;;;;24.23;12.30;;;;;;;;;;6144080;29;20138;-60
2022/09/27 11:54:34;;;;;;;26.02;11.60;;;;;;;;;;6147482;28;20477;-65
2022/09/27 11:57:45;;;;;;;24.58;12.20;;;;;;;;;;6140394;29;20062;-60
2022/09/27 12:00:54;;;;;;;30.95;13.43;;;;;;;;;;6144035;29;20047;-62
2022/09/27 12:04:30;;;;;;;23.75;11.38;;;;;;;;;;6144653;28;20074;-62
2022/09/27 12:07:46;;;;;;;31.05;15.55;;;;;;;;;;6118221;29;20062;-60
2022/09/27 12:10:51;;;;;;;25.95;13.80;;;;;;;;;;6144125;29;20070;-60
2022/09/27 12:14:01;;;;;;;34.05;16.83;;;;;;;;;;6151039;28;20086;-59
2022/09/27 12:17:06;;;;;;;27.27;13.40;;;;;;;;;;6145305;29;20047;-60
2022/09/27 12:20:17;;;;;;;24.48;12.35;;;;;;;;;;6145988;29;20058;-59
2022/09/27 12:23:38;;;;;;;32.00;16.67;;;;;;;;;;6146857;28;20057;-59
2022/09/27 12:26:41;;;;;;;31.05;14.55;;;;;;;;;;6148468;28;21099;-59
2022/09/27 12:29:44;;;;;;;22.20;10.95;;;;;;;;;;6143597;29;20042;-59
2022/09/27 12:33:03;;;;;;;21.65;9.68;;;;;;;;;;6144729;29;20058;-56
2022/09/27 12:36:08;;;;;;;21.25;9.75;;;;;;;;;;6156729;28;20047;-59
2022/09/27 12:39:17;;;;;;;25.98;11.18;;;;;;;;;;6141754;29;20047;-60
2022/09/27 12:42:41;;;;;;;22.77;10.80;;;;;;;;;;6148171;28;20133;-60
2022/09/27 12:45:44;;;;;;;29.20;16.15;;;;;;;;;;6137126;29;20447;-59
2022/09/27 12:48:48;;;;;;;25.55;13.50;;;;;;;;;;6141679;29;20142;-60
2022/09/27 12:51:53;;;;;;;33.97;14.85;;;;;;;;;;6144309;29;20457;-60
2022/09/27 12:55:05;;;;;;;24.77;11.75;;;;;;;;;;6142472;28;20175;-59
2022/09/27 12:58:28;;;;;;;22.02;8.02;;;;;;;;;;6141759;29;20126;-59
2022/09/27 13:02:01;;;;;;;20.65;8.00;;;;;;;;;;6143173;29;20087;-58
2022/09/27 13:05:23;;;;;;;14.27;7.13;;;;;;;;;;6142552;29;20569;-65
2022/09/27 13:08:54;;;;;;;16.20;6.68;;;;;;;;;;6143098;29;20110;-59
2022/09/27 13:12:16;;;;;;;19.90;7.53;;;;;;;;;;6145305;29;20075;-58
2022/09/27 13:15:20;;;;;;;17.20;8.43;;;;;;;;;;6145397;29;20158;-59
2022/09/27 13:18:30;;;;;;;18.20;7.50;;;;;;;;;;6142071;28;20435;-58
2022/09/27 13:21:48;;;;;;;16.65;7.60;;;;;;;;;;6145396;29;20138;-60
2022/09/27 13:24:49;;;;;;;15.57;8.30;;;;;;;;;;6145101;29;20505;-60
2022/09/27 13:27:50;;;;;;;18.73;8.77;;;;;;;;;;6142506;29;20047;-58
2022/09/27 13:30:51;;;;;;;23.65;9.93;;;;;;;;;;6142916;29;20320;-59
2022/09/27 13:33:52;;;;;;;22.13;10.25;;;;;;;;;;6143998;29;20035;-59
2022/09/27 13:36:53;;;;;;;21.30;10.35;;;;;;;;;;6141922;28;20063;-58
2022/09/27 13:40:10;;;;;;;19.15;9.40;;;;;;;;;;6142963;29;20097;-58
2022/09/27 13:43:16;;;;;;;22.15;8.80;;;;;;;;;;6144654;28;20085;-59
2022/09/27 13:46:21;;;;;;;20.08;9.25;;;;;;;;;;6165771;28;20086;-60
2022/09/27 13:49:36;;;;;;;21.52;9.23;;;;;;;;;;6165779;28;20141;-60
2022/09/27 13:52:40;;;;;;;23.83;10.25;;;;;;;;;;6166363;28;20066;-58
2022/09/27 13:55:43;;;;;;;20.67;11.30;;;;;;;;;;6168310;28;20089;-60
2022/09/27 13:58:58;;;;;;;27.35;13.98;;;;;;;;;;6168212;28;20047;-59
2022/09/27 14:02:15;;;;;;;24.02;12.85;;;;;;;;;;6166876;28;20454;-60
2022/09/27 14:05:30;;;;;;;31.15;15.70;;;;;;;;;;6163227;28;20137;-59
2022/09/27 14:08:33;;;;;;;24.63;11.50;;;;;;;;;;6167314;28;20047;-57
2022/09/27 14:11:39;;;;;;;25.65;12.38;;;;;;;;;;6166539;28;20051;-59
2022/09/27 14:14:41;;;;;;;27.00;14.57;;;;;;;;;;6164271;28;20058;-60
2022/09/27 14:17:44;;;;;;;27.83;12.27;;;;;;;;;;6167429;28;20046;-59
2022/09/27 14:20:48;;;;;;;31.67;16.17;;;;;;;;;;6168308;28;20051;-59
2022/09/27 14:23:49;;;;;;;26.90;12.48;;;;;;;;;;6166897;28;20086;-59
2022/09/27 14:27:12;;;;;;;23.70;11.30;;;;;;;;;;6166436;28;20051;-58
2022/09/27 14:30:19;;;;;;;11.70;5.32;;;;;;;;;;6164334;28;20046;-58
2022/09/27 14:33:30;;;;;;;10.23;4.93;;;;;;;;;;6166868;28;20090;-59
2022/09/27 14:40:06;;;;;;;14.60;6.03;;;;;;;;;;6165189;28;20296;-59
2022/09/27 14:43:14;;;;;;;17.40;5.75;;;;;;;;;;6165603;28;20050;-58
2022/09/27 14:46:27;;;;;;;13.50;5.90;;;;;;;;;;6166021;28;20490;-59
2022/09/27 14:49:28;;;;;;;13.02;4.93;;;;;;;;;;6164889;28;20074;-62
2022/09/27 14:52:33;;;;;;;10.52;4.72;;;;;;;;;;6167546;28;20078;-60
2022/09/27 14:55:35;;;;;;;11.63;4.68;;;;;;;;;;6167597;28;20070;-57
2022/09/27 14:58:36;;;;;;;13.63;4.90;;;;;;;;;;6164836;28;20086;-59
2022/09/27 15:01:38;;;;;;;16.42;6.13;;;;;;;;;;6165469;28;20531;-58
2022/09/27 15:04:45;;;;;;;11.65;4.93;;;;;;;;;;6167162;28;20050;-59
2022/09/27 15:07:47;;;;;;;12.80;4.88;;;;;;;;;;6170759;28;20145;-61
2022/09/27 15:10:48;;;;;;;14.25;5.45;;;;;;;;;;6170455;28;20162;-59
2022/09/27 15:13:51;;;;;;;12.30;5.77;;;;;;;;;;6170459;28;20137;-58
2022/09/27 15:16:53;;;;;;;16.33;5.65;;;;;;;;;;6169941;28;20051;-59
2022/09/27 15:19:59;;;;;;;14.95;6.32;;;;;;;;;;6171060;28;20531;-59
2022/09/27 15:23:04;;;;;;;14.73;6.40;;;;;;;;;;6166157;28;20873;-58
2022/09/27 15:26:24;;;;;;;16.95;6.63;;;;;;;;;;6167925;28;20039;-58
2022/09/27 15:29:25;;;;;;;18.88;8.15;;;;;;;;;;6166253;28;20101;-59
2022/09/27 15:32:27;;;;;;;20.50;8.45;;;;;;;;;;6166412;28;20510;-58
2022/09/27 15:35:32;;;;;;;18.98;8.70;;;;;;;;;;6167908;28;20150;-57
2022/09/27 15:38:46;;;;;;;23.20;8.57;;;;;;;;;;6169264;28;20676;-58
2022/09/27 15:42:00;;;;;;;27.85;11.20;;;;;;;;;;6167736;28;20317;-59
2022/09/27 15:45:01;;;;;;;55.88;22.17;;;;;;;;;;6167401;28;20055;-57
2022/09/27 15:48:10;;;;;;;83.50;30.77;;;;;;;;;;6166573;28;20101;-59
2022/09/27 15:51:39;;;;;;;56.90;24.10;;;;;;;;;;6168939;28;20047;-62
2022/09/27 15:54:40;;;;;;;55.83;21.50;;;;;;;;;;6163456;28;20482;-59
2022/09/27 15:57:44;;;;;;;76.75;27.63;;;;;;;;;;6163277;28;20065;-59
2022/09/27 16:01:01;;;;;;;145.38;63.10;;;;;;;;;;6165125;28;20046;-59
2022/09/27 16:04:02;;;;;;;48.28;23.08;;;;;;;;;;6165461;28;20047;-58
2022/09/27 16:07:03;;;;;;;46.03;26.35;;;;;;;;;;6166296;28;20111;-59
2022/09/27 16:10:28;;;;;;;48.72;28.75;;;;;;;;;;6156467;28;20090;-58
2022/09/27 16:13:29;;;;;;;54.72;26.65;;;;;;;;;;6154731;28;20113;-59
2022/09/27 16:16:29;;;;;;;51.42;27.30;;;;;;;;;;6154661;28;20059;-59
2022/09/27 16:19:30;;;;;;;56.17;24.55;;;;;;;;;;6155642;28;20783;-59
2022/09/27 16:22:30;;;;;;;49.22;21.10;;;;;;;;;;6159311;28;21602;-60
2022/09/27 16:25:31;;;;;;;65.22;20.83;;;;;;;;;;6162260;28;20051;-59
2022/09/27 16:28:32;;;;;;;57.92;19.77;;;;;;;;;;6162554;28;20043;-59
2022/09/27 16:31:33;;;;;;;62.15;21.50;;;;;;;;;;6164008;28;20082;-59
2022/09/27 16:34:34;;;;;;;47.40;18.52;;;;;;;;;;6164563;28;20130;-58
2022/09/27 16:37:35;;;;;;;71.10;24.27;;;;;;;;;;6158203;28;20502;-56
2022/09/27 16:40:36;;;;;;;49.70;22.00;;;;;;;;;;6159881;28;20484;-55
2022/09/27 16:43:37;;;;;;;59.37;25.60;;;;;;;;;;6163201;28;20442;-61
2022/09/27 16:46:40;;;;;;;61.83;24.73;;;;;;;;;;6161808;28;20327;-62
2022/09/27 16:53:00;;;;;;;316.58;109.88;;;;;;;;;;6164840;28;20082;-56
2022/09/27 16:56:00;;;;;;;64.40;33.08;;;;;;;;;;6164130;28;20053;-56
2022/09/27 16:59:03;;;;;;;46.10;20.88;;;;;;;;;;6160784;28;20501;-61
2022/09/27 17:02:04;;;;;;;55.55;27.65;;;;;;;;;;6164144;28;20490;-52
2022/09/27 17:05:05;;;;;;;48.97;23.08;;;;;;;;;;6162003;28;20055;-58
2022/09/27 17:08:06;;;;;;;41.53;19.17;;;;;;;;;;6160822;28;20050;-58
2022/09/27 17:11:07;;;;;;;50.15;19.77;;;;;;;;;;6164576;28;20057;-59
2022/09/27 17:14:15;;;;;;;45.72;18.48;;;;;;;;;;6159152;28;20070;-58
2022/09/27 17:17:16;;;;;;;45.03;19.13;;;;;;;;;;6157572;28;20084;-58
2022/09/27 17:20:17;;;;;;;51.60;19.58;;;;;;;;;;6160358;28;20047;-58
2022/09/27 17:23:17;;;;;;;52.88;21.45;;;;;;;;;;6165403;28;20058;-58
2022/09/27 17:26:21;;;;;;;47.95;20.17;;;;;;;;;;6162747;28;20050;-58
2022/09/27 17:29:21;;;;;;;82.60;40.17;;;;;;;;;;6160586;28;20069;-62
2022/09/27 17:32:23;;;;;;;99.38;46.47;;;;;;;;;;6164430;28;20047;-61
2022/09/27 17:35:24;;;;;;;80.95;37.22;;;;;;;;;;6164196;28;20043;-57
2022/09/27 17:38:24;;;;;;;65.80;29.38;;;;;;;;;;6162452;28;20154;-61
2022/09/27 17:41:27;;;;;;;66.30;28.50;;;;;;;;;;6163490;28;20050;-57
2022/09/27 17:44:27;;;;;;;74.88;32.80;;;;;;;;;;6165758;28;20047;-61
2022/09/27 17:50:46;;;;;;;70.65;30.05;;;;;;;;;;6163773;28;20054;-59
2022/09/27 17:53:48;;;;;;;69.30;29.20;;;;;;;;;;6165205;28;20505;-59
2022/09/27 17:56:49;;;;;;;78.38;31.50;;;;;;;;;;6163485;28;20058;-58
2022/09/27 17:59:52;;;;;;;57.63;25.52;;;;;;;;;;6162320;28;20046;-59
2022/09/27 18:02:52;;;;;;;;;;;;;;;;;;6165082;28;20045;-59
2022/09/27 18:05:53;;;;;;;60.75;25.55;;;;;;;;;;6162787;28;20358;-58
2022/09/27 18:08:55;;;;;;;81.70;36.15;;;;;;;;;;6159165;28;20403;-59
2022/09/27 18:11:55;;;;;;;62.25;25.70;;;;;;;;;;6159138;28;20137;-61
2022/09/27 18:14:58;;;;;;;73.80;30.13;;;;;;;;;;6162611;28;20538;-61
2022/09/27 18:17:59;;;;;;;66.40;29.80;;;;;;;;;;6163150;28;20141;-60
2022/09/27 18:21:02;;;;;;;70.03;29.83;;;;;;;;;;6159495;28;20061;-61